Terminal Aerodrome Forecast
Issued by NWS

Home | Current Version | Previous Version | Text Only | Print | Product List | Glossary On
Versions: 1 2 3 4 5 6 7 8 9 10 11 12 13 14 15
000
FTUS45 KABQ 240537
TAFFMN
TAF
KFMN 240537Z 2406/2506 27006KT P6SM SCT070 BKN100
     FM241600 28013G22KT P6SM SCT070 BKN100
     FM242000 29020G30KT P6SM SCT070=

USA.gov is the U.S. government's official web portal to all federal, state and local government web resources and services.